Saturday, May 26, 2018, 2:14 AM EDT
Back to Local

KBAF, Westfield Barnes Municipal

Location: Westfield, MA, United States Lat: 42.167
Local Time: 2:14 AM EDT ( 6:14 GMT) Lon: -72.717
Time Zone: US/Eastern Elev: 272 ft

Show me the last for .
Show Decoded

2018-05-26 01:53 METAR KBAF 260553Z AUTO 19003KT 10SM CLR 17/14 A2976 RMK AO2 SLP075 T01670144
                 10261 20156 58008 =
2018-05-26 00:53 METAR KBAF 260453Z AUTO 19004KT 10SM CLR 17/14 A2978 RMK AO2 SLP081 T01720139
                 403170083 =
2018-05-25 23:53 METAR KBAF 260353Z AUTO 18003KT 10SM CLR 19/14 A2978 RMK AO2 SLP081 T01940139 =
2018-05-25 22:53 METAR KBAF 260253Z AUTO 17005KT 10SM CLR 18/12 A2978 RMK AO2 SLP083 T01830122
                 50003 =
2018-05-25 21:53 METAR KBAF 260153Z 17005KT 10SM CLR 21/12 A2979 RMK AO2 SLP085 T02060117 =
2018-05-25 20:53 METAR KBAF 260053Z 00000KT 10SM CLR 22/14 A2978 RMK AO2 SLP082 T02170139 =
2018-05-25 19:53 METAR KBAF 252353Z 22004KT 10SM CLR 27/09 A2977 RMK AO2 SLP081 T02670089 10317
                 20267 55003 =
2018-05-25 18:53 METAR KBAF 252253Z 23006KT 10SM CLR 29/08 A2977 RMK AO2 SLP078 T02890078 =
2018-05-25 17:53 METAR KBAF 252153Z 24015G20KT 10SM CLR 31/08 A2977 RMK AO2 SLP079 T03060078 =
2018-05-25 16:53 METAR KBAF 252053Z 23010G17KT 10SM CLR 31/09 A2978 RMK AO2 SLP084 T03110089
                 56023 =
2018-05-25 15:53 METAR KBAF 251953Z 23014G21KT 10SM CLR 31/09 A2980 RMK AO2 SLP091 T03060094 =
2018-05-25 14:53 METAR KBAF 251853Z 25011G15KT 10SM CLR 31/08 A2982 RMK AO2 SLP097 T03110083 =
2018-05-25 13:53 METAR KBAF 251753Z 27016G20KT 10SM CLR 31/07 A2985 RMK AO2 SLP106 T03060072
                 10306 20150 58026 =
2018-05-25 12:53 METAR KBAF 251653Z 28012G22KT 10SM CLR 29/07 A2988 RMK AO2 SLP115 T02940072 =
2018-05-25 11:53 METAR KBAF 251553Z 26010KT 10SM CLR 29/08 A2990 RMK AO2 SLP124 T02890078 =
2018-05-25 10:53 METAR KBAF 251453Z 26009KT 10SM CLR 28/08 A2993 RMK AO2 SLP132 T02830083 58023 =
2018-05-25 09:53 METAR KBAF 251353Z 19007KT 10SM CLR 24/12 A2996 RMK AO2 SLP142 T02440117 =
2018-05-25 08:53 METAR KBAF 251253Z 00000KT 10SM CLR 19/12 A2998 RMK AO2 SLP151 T01890122 =
2018-05-25 07:53 METAR KBAF 251153Z 00000KT 10SM CLR 14/12 A3000 RMK AO2 SLP156 T01440117 10144
                 20083 58003 =
2018-05-25 06:53 METAR KBAF 251053Z 00000KT 10SM CLR 12/11 A3000 RMK AO2 SLP159 T01170111 =
2018-05-25 05:53 METAR KBAF 250953Z AUTO 18003KT 5SM BR CLR 08/08 A3000 RMK AO2 SLP160 T00830083
                 =
2018-05-25 04:53 METAR KBAF 250853Z AUTO 20003KT 8SM CLR 10/10 A3000 RMK AO2 SLP159 T01000100
                 56012 =
2018-05-25 03:53 METAR KBAF 250753Z AUTO 00000KT 9SM CLR 11/10 A3001 RMK AO2 SLP162 T01060100 =
2018-05-25 02:53 METAR KBAF 250653Z AUTO 00000KT 10SM CLR 11/11 A3002 RMK AO2 SLP165 T01110111 =

Support USWX by starting your Amazon purchase here.